< Cyclone 201802 2018 Season Cyclone 201806 >
Cyclone 201803 (Dahlia)
General InformationTrack Information on Google MapsDetailed Wind InformationList of All Images || ResourceGoogle EarthGE AnimationAtom FeedGeoJSON
Detalied Best Track (Time Zone = UTC)
Year Month Day Hour Lat. Long. Pressure (hPa) Wind (kt) Class Image Chart
2017 11 26 00 -6.1 93.1 1005 0 0 Image --
2017 11 26 06 -6.3 94.0 1005 0 0 Image --
2017 11 26 12 -6.3 94.2 1005 0 0 Image --
2017 11 27 00 -6.6 94.2 1005 0 0 Image --
2017 11 27 12 -7.7 97.5 1005 0 0 Image --
2017 11 28 00 -8.0 98.6 1005 20 2 Image --
2017 11 28 06 -8.1 98.8 1005 20 2 Image --
2017 11 28 12 -8.2 99.7 1005 20 2 Image --
2017 11 28 18 -8.4 100.4 1005 20 2 Image --
2017 11 29 00 -8.3 100.9 1004 20 2 Image --
2017 11 29 06 -8.2 101.5 1003 30 2 Image --
2017 11 29 12 -8.5 102.6 998 35 3 Image --
2017 11 29 18 -8.5 103.5 998 35 3 Image --
2017 11 30 00 -8.7 104.9 998 35 3 Image --
2017 11 30 06 -9.0 106.3 995 35 3 Image --
2017 11 30 12 -9.1 107.4 995 40 3 Image --
2017 11 30 18 -9.5 108.6 993 40 3 Image --
2017 12 1 00 -9.6 109.3 987 50 4 Image --
2017 12 1 06 -10.1 109.6 987 50 4 Image --
2017 12 1 12 -10.4 110.1 985 50 4 Image --
2017 12 1 18 -10.6 110.5 985 50 4 Image --
2017 12 2 00 -10.5 110.8 989 50 4 Image --
2017 12 2 06 -10.7 111.1 989 45 3 Image --
2017 12 2 12 -11.1 111.6 996 35 3 Image --
2017 12 2 18 -11.4 111.8 998 35 3 Image --
2017 12 3 00 -12.4 112.3 1000 30 2 Image --
2017 12 3 06 -13.7 112.1 1000 30 2 Image --
2017 12 3 12 -14.8 112.0 999 30 2 Image --
2017 12 3 18 -15.3 111.5 999 30 2 Image --
2017 12 4 00 -16.3 111.3 1001 30 2 Image --
2017 12 4 06 -16.9 111.0 1001 25 2 Image --
< Cyclone 201802 2018 Season Cyclone 201806 >

Help